createdAt,value
2018-06-09T06:02:53.216Z,26.80
2018-06-09T06:05:19.266Z,29.77
2018-06-09T06:07:45.974Z,29.70
2018-06-09T06:10:12.058Z,28.60
2018-06-09T06:12:38.148Z,30.57
2018-06-09T06:15:04.315Z,26.30
2018-06-09T06:17:30.455Z,28.10
2018-06-09T06:19:56.573Z,28.07
2018-06-09T06:22:22.652Z,29.47
2018-06-09T06:24:48.715Z,27.70
2018-06-09T06:27:14.787Z,28.00
2018-06-09T06:29:40.827Z,27.63
2018-06-09T06:32:06.954Z,29.40
2018-06-09T06:34:33.034Z,31.03
2018-06-09T06:36:59.079Z,30.90
2018-06-09T06:39:25.096Z,30.80
2018-06-09T06:41:51.170Z,30.97
2018-06-09T06:44:17.379Z,31.90
2018-06-09T06:46:43.527Z,28.63
2018-06-09T06:49:09.560Z,30.00
2018-06-09T06:51:35.856Z,30.30
2018-06-09T06:54:01.938Z,29.80
2018-06-09T06:56:27.976Z,31.03
2018-06-09T06:58:54.050Z,32.00
2018-06-09T07:01:20.074Z,32.17
2018-06-09T07:03:46.112Z,32.60
2018-06-09T07:06:12.228Z,33.80
2018-06-09T07:08:38.327Z,34.77
2018-06-09T07:11:04.346Z,33.90
2018-06-09T07:13:30.713Z,33.47
2018-06-09T07:15:56.815Z,32.00
2018-06-09T07:18:23.052Z,32.83
2018-06-09T07:20:49.090Z,34.37
2018-06-09T07:23:15.162Z,32.73
2018-06-09T07:25:41.155Z,33.10
2018-06-09T07:28:07.263Z,31.70
2018-06-09T07:30:33.289Z,31.20
2018-06-09T07:32:59.326Z,30.00
2018-06-09T07:35:25.422Z,33.60
2018-06-09T07:37:51.471Z,31.13
2018-06-09T07:40:17.549Z,28.77
2018-06-09T07:42:43.578Z,29.23
2018-06-09T07:45:09.605Z,31.03
2018-06-09T07:47:35.634Z,32.40
2018-06-09T07:50:01.650Z,29.50
2018-06-09T07:52:27.666Z,28.20
2018-06-09T07:54:53.702Z,28.70
2018-06-09T07:57:19.723Z,29.67
2018-06-09T07:59:45.752Z,27.90
2018-06-09T08:02:11.774Z,30.53
2018-06-09T08:04:37.802Z,28.83
2018-06-09T08:07:03.838Z,27.77
2018-06-09T08:09:29.866Z,29.83
2018-06-09T08:11:55.891Z,29.20
2018-06-09T08:14:21.931Z,28.20
2018-06-09T08:16:47.974Z,28.23
2018-06-09T08:19:14.015Z,29.77
2018-06-09T08:21:40.064Z,32.13
2018-06-09T08:24:06.105Z,32.07
2018-06-09T08:26:32.121Z,29.70
2018-06-09T08:28:58.156Z,29.07
2018-06-09T08:31:24.187Z,30.80
2018-06-09T08:33:50.230Z,28.80
2018-06-09T08:36:16.270Z,28.67
2018-06-09T08:38:42.309Z,30.17
2018-06-09T08:41:08.339Z,29.53
2018-06-09T08:43:34.371Z,29.53
2018-06-09T08:46:00.382Z,28.60
2018-06-09T08:48:26.401Z,29.57
2018-06-09T08:50:52.421Z,28.00
2018-06-09T08:53:18.444Z,27.80
2018-06-09T08:55:44.465Z,26.60
2018-06-09T08:58:10.486Z,26.53
2018-06-09T09:00:36.510Z,28.33
2018-06-09T09:03:02.559Z,26.77
2018-06-09T09:05:28.562Z,25.80
2018-06-09T09:07:54.784Z,27.73
2018-06-09T09:10:20.820Z,26.17
2018-06-09T09:12:46.850Z,26.23
2018-06-09T09:15:13.611Z,26.30
2018-06-09T09:17:39.701Z,26.27
2018-06-09T09:20:06.160Z,25.37
2018-06-09T09:22:32.311Z,25.50
2018-06-09T09:24:58.362Z,26.57
2018-06-09T09:27:24.383Z,25.50
2018-06-09T09:29:50.408Z,25.80
2018-06-09T09:32:16.426Z,25.70
2018-06-09T09:34:42.472Z,28.10
2018-06-09T09:37:08.565Z,25.73
2018-06-09T09:39:34.596Z,25.83
2018-06-09T09:42:00.668Z,24.67
2018-06-09T09:44:26.872Z,24.20
2018-06-09T09:46:52.943Z,24.20
2018-06-09T09:49:19.100Z,24.43
2018-06-09T09:51:45.127Z,24.40
2018-06-09T09:54:11.427Z,22.00
2018-06-09T09:56:37.808Z,22.23
2018-06-09T09:59:03.858Z,21.27
2018-06-09T10:01:30.199Z,21.70
2018-06-09T10:03:56.827Z,22.07
2018-06-09T10:06:22.851Z,21.90
2018-06-09T10:08:48.952Z,21.90
2018-06-09T10:11:15.039Z,21.30
2018-06-09T10:13:41.262Z,22.20
2018-06-09T10:16:07.311Z,20.03
2018-06-09T10:18:33.396Z,20.00
2018-06-09T10:20:59.423Z,22.00
2018-06-09T10:23:25.465Z,22.10
2018-06-09T10:25:51.474Z,21.53
2018-06-09T10:28:17.539Z,22.47
2018-06-09T10:30:43.565Z,22.13
2018-06-09T10:33:09.588Z,22.40
2018-06-09T10:35:35.617Z,24.17
2018-06-09T10:38:01.639Z,30.20
2018-06-09T10:40:27.706Z,40.20
2018-06-09T10:42:53.743Z,85.57
2018-06-09T10:45:19.819Z,92.50
2018-06-09T10:47:45.832Z,93.37
2018-06-09T10:50:11.865Z,100.33
2018-06-09T10:52:37.925Z,99.80
2018-06-09T10:55:03.943Z,96.60
2018-06-09T10:57:29.966Z,93.93
2018-06-09T10:59:55.995Z,96.97
2018-06-09T11:02:22.015Z,94.20
2018-06-09T11:04:48.047Z,95.20
2018-06-09T11:07:14.161Z,94.80
2018-06-09T11:09:40.292Z,94.30
2018-06-09T11:12:06.315Z,91.93
2018-06-09T11:14:32.368Z,97.20
2018-06-09T11:16:58.393Z,95.07
2018-06-09T11:19:24.435Z,89.73
2018-06-09T11:21:50.461Z,88.50
2018-06-09T11:24:16.485Z,84.60
2018-06-09T11:26:42.968Z,78.33
2018-06-09T11:29:09.184Z,81.50
2018-06-09T11:31:35.222Z,78.33
2018-06-09T11:34:01.336Z,80.73
2018-06-09T11:36:28.369Z,77.90
2018-06-09T11:38:54.415Z,72.80
2018-06-09T11:41:20.464Z,73.80
2018-06-09T11:43:46.488Z,71.87
2018-06-09T11:46:12.508Z,72.80
2018-06-09T11:48:38.532Z,71.90
2018-06-09T11:51:04.706Z,71.70
2018-06-09T11:53:30.748Z,69.23
2018-06-09T11:55:57.093Z,69.20
2018-06-09T11:58:23.160Z,65.00
2018-06-09T12:00:49.220Z,64.97
2018-06-09T12:03:15.274Z,64.77
2018-06-09T12:05:41.328Z,65.67
2018-06-09T12:08:07.354Z,63.67
2018-06-09T12:10:33.476Z,66.27
2018-06-09T12:12:59.523Z,63.33
2018-06-09T12:15:25.576Z,63.13
2018-06-09T12:17:51.631Z,60.67
2018-06-09T12:20:17.707Z,62.67
2018-06-09T12:22:44.172Z,61.10
2018-06-09T12:25:10.212Z,61.00
2018-06-09T12:27:36.243Z,61.70
2018-06-09T12:30:02.494Z,61.57
2018-06-09T12:32:28.606Z,61.07
2018-06-09T12:34:54.608Z,56.33
2018-06-09T12:37:20.723Z,59.27
2018-06-09T12:39:46.804Z,58.00
2018-06-09T12:42:12.815Z,62.00
2018-06-09T12:44:38.906Z,57.60
2018-06-09T12:47:05.123Z,55.90
2018-06-09T12:49:31.188Z,57.77
2018-06-09T12:51:57.578Z,57.00
2018-06-09T12:54:23.678Z,55.17
2018-06-09T12:56:49.729Z,57.40
2018-06-09T12:59:15.755Z,55.03
2018-06-09T13:01:41.782Z,56.13
2018-06-09T13:04:07.815Z,54.90
2018-06-09T13:06:33.867Z,54.60
2018-06-09T13:08:59.891Z,55.20
2018-06-09T13:11:26.070Z,54.60
2018-06-09T13:13:52.098Z,54.30
2018-06-09T13:16:18.215Z,51.17
2018-06-09T13:18:44.247Z,54.30
2018-06-09T13:21:10.282Z,52.73
2018-06-09T13:23:36.328Z,51.40
2018-06-09T13:26:02.347Z,54.50
2018-06-09T13:28:28.371Z,55.03
2018-06-09T13:30:55.448Z,51.80
2018-06-09T13:33:21.470Z,50.10
2018-06-09T13:35:47.547Z,51.90
2018-06-09T13:38:13.548Z,50.60
2018-06-09T13:40:39.614Z,47.97
2018-06-09T13:43:05.630Z,49.57
2018-06-09T13:45:31.668Z,48.43
2018-06-09T13:47:58.027Z,47.37
2018-06-09T13:50:24.063Z,46.30
2018-06-09T13:52:50.098Z,43.97
2018-06-09T13:55:16.183Z,46.70
2018-06-09T13:57:42.219Z,43.87
2018-06-09T14:00:08.292Z,43.43
2018-06-09T14:02:34.333Z,45.30
2018-06-09T14:05:00.367Z,43.97
2018-06-09T14:07:26.401Z,42.33
2018-06-09T14:09:52.420Z,43.83
2018-06-09T14:12:18.462Z,43.40
2018-06-09T14:14:44.492Z,42.40
2018-06-09T14:17:10.519Z,43.67
2018-06-09T14:19:36.540Z,42.27
2018-06-09T14:22:02.571Z,41.47
2018-06-09T14:24:28.616Z,42.90
2018-06-09T14:26:54.745Z,44.87
2018-06-09T14:29:20.796Z,40.97
2018-06-09T14:31:46.826Z,41.20
2018-06-09T14:34:12.851Z,39.70
2018-06-09T14:36:38.909Z,42.17
2018-06-09T14:39:04.942Z,40.33
2018-06-09T14:41:31.018Z,39.30
2018-06-09T14:43:57.086Z,40.73
2018-06-09T14:46:23.128Z,40.70
2018-06-09T14:48:49.235Z,36.90
2018-06-09T14:51:15.262Z,38.90
2018-06-09T14:53:42.351Z,40.00
2018-06-09T14:56:08.399Z,37.03
2018-06-09T14:58:34.441Z,39.27
2018-06-09T15:01:00.475Z,39.40
2018-06-09T15:03:26.494Z,37.53
2018-06-09T15:05:52.535Z,36.80
2018-06-09T15:08:18.550Z,39.37
2018-06-09T15:10:44.587Z,36.93
2018-06-09T15:13:10.647Z,38.00
2018-06-09T15:15:36.702Z,38.60
2018-06-09T15:18:02.836Z,37.67
2018-06-09T15:20:28.887Z,39.60
2018-06-09T15:22:54.973Z,35.90
2018-06-09T15:25:21.008Z,37.73
2018-06-09T15:27:47.052Z,38.40
2018-06-09T15:30:13.083Z,36.30
2018-06-09T15:32:39.143Z,37.47
2018-06-09T15:35:05.174Z,35.23
2018-06-09T15:37:31.228Z,36.60
2018-06-09T15:39:57.275Z,37.60
2018-06-09T15:42:23.312Z,35.57
2018-06-09T15:44:49.331Z,35.97
2018-06-09T15:47:15.391Z,34.60
2018-06-09T15:49:41.565Z,36.50
2018-06-09T15:52:07.594Z,35.67
2018-06-09T15:54:33.670Z,35.50
2018-06-09T15:57:00.124Z,36.80
2018-06-09T15:59:26.150Z,36.50
2018-06-09T16:01:52.182Z,32.77
2018-06-09T16:04:18.211Z,32.53
2018-06-09T16:06:44.362Z,32.30
2018-06-09T16:09:10.461Z,34.67
2018-06-09T16:11:36.470Z,31.80
2018-06-09T16:14:02.490Z,33.03
2018-06-09T16:16:28.519Z,33.23
2018-06-09T16:18:54.531Z,35.03
2018-06-09T16:21:20.557Z,32.17
2018-06-09T16:23:46.566Z,31.60
2018-06-09T16:26:12.586Z,32.90
2018-06-09T16:28:38.593Z,33.20
2018-06-09T16:31:04.619Z,29.97
2018-06-09T16:33:30.632Z,32.83
2018-06-09T16:35:56.656Z,31.50
2018-06-09T16:38:22.677Z,31.13
2018-06-09T16:40:48.698Z,31.00
2018-06-09T16:43:14.726Z,32.77
2018-06-09T16:45:40.763Z,30.17
2018-06-09T16:48:06.787Z,31.07
2018-06-09T16:50:32.803Z,31.87
2018-06-09T16:52:58.835Z,30.80
2018-06-09T16:55:24.875Z,31.10
2018-06-09T16:57:50.908Z,30.27
2018-06-09T17:00:16.950Z,31.50
2018-06-09T17:02:42.967Z,32.80
2018-06-09T17:05:08.995Z,28.40
2018-06-09T17:07:35.305Z,31.47
2018-06-09T17:10:01.322Z,31.37
2018-06-09T17:12:27.348Z,28.60
2018-06-09T17:14:53.355Z,28.87
2018-06-09T17:17:19.381Z,31.47
2018-06-09T17:19:45.407Z,28.77
2018-06-09T17:22:11.445Z,28.10
2018-06-09T17:24:37.459Z,31.07
2018-06-09T17:27:03.490Z,30.47
2018-06-09T17:29:29.510Z,30.47
2018-06-09T17:31:55.534Z,29.67
2018-06-09T17:34:21.542Z,28.33
2018-06-09T17:36:47.565Z,31.57
2018-06-09T17:39:13.582Z,28.23
2018-06-09T17:41:39.607Z,29.13
2018-06-09T17:44:05.633Z,29.10
2018-06-09T17:46:31.658Z,27.17
2018-06-09T17:48:57.706Z,28.00
2018-06-09T17:51:23.728Z,27.67
2018-06-09T17:53:49.762Z,27.10
2018-06-09T17:56:15.785Z,25.23
2018-06-09T17:58:41.819Z,27.33
2018-06-09T18:01:07.859Z,29.43
2018-06-09T18:03:33.880Z,27.00
2018-06-09T18:05:59.890Z,26.37
2018-06-09T18:08:25.914Z,25.27
2018-06-09T18:10:51.921Z,26.50
2018-06-09T18:13:17.958Z,25.10
2018-06-09T18:15:43.966Z,25.37
2018-06-09T18:18:09.995Z,26.03
2018-06-09T18:20:36.055Z,25.80
2018-06-09T18:23:02.141Z,24.50
2018-06-09T18:25:28.106Z,27.27
2018-06-09T18:27:54.134Z,25.73
2018-06-09T18:30:20.256Z,24.00
2018-06-09T18:32:46.316Z,25.37
2018-06-09T18:35:12.322Z,24.60
2018-06-09T18:37:38.373Z,26.23
2018-06-09T18:40:04.391Z,25.53
2018-06-09T18:42:30.417Z,26.20
2018-06-09T18:44:56.442Z,25.20
2018-06-09T18:47:22.466Z,25.53
2018-06-09T18:49:48.491Z,23.83
2018-06-09T18:52:14.517Z,25.20
2018-06-09T18:54:40.543Z,24.20
2018-06-09T18:57:06.634Z,25.23
2018-06-09T18:59:32.654Z,25.23
2018-06-09T19:01:58.662Z,25.77
2018-06-09T19:04:24.702Z,25.57
2018-06-09T19:06:50.711Z,25.60
2018-06-09T19:09:16.731Z,24.57
2018-06-09T19:11:42.751Z,25.17
2018-06-09T19:14:08.783Z,25.23
2018-06-09T19:16:34.804Z,25.70
2018-06-09T19:19:00.836Z,23.10
2018-06-09T19:21:26.856Z,25.00
2018-06-09T19:23:52.882Z,24.40
2018-06-09T19:26:18.986Z,25.30
2018-06-09T19:28:44.999Z,23.43
2018-06-09T19:31:11.146Z,22.90
2018-06-09T19:33:37.283Z,21.87
2018-06-09T19:36:03.385Z,20.77
2018-06-09T19:38:29.731Z,20.57
2018-06-09T19:40:55.778Z,20.23
2018-06-09T19:43:21.844Z,18.60
2018-06-09T19:45:48.209Z,17.83
2018-06-09T19:48:14.320Z,17.77
2018-06-09T19:50:40.334Z,17.93
2018-06-09T19:53:06.354Z,18.83
2018-06-09T19:55:32.394Z,17.27
2018-06-09T19:57:58.417Z,15.20
2018-06-09T20:00:24.498Z,16.97
2018-06-09T20:02:50.548Z,15.07
2018-06-09T20:05:16.566Z,16.10
2018-06-09T20:07:42.598Z,15.73
2018-06-09T20:10:08.693Z,15.53
2018-06-09T20:12:34.722Z,15.70
2018-06-09T20:15:00.810Z,16.00
2018-06-09T20:17:26.815Z,15.20
2018-06-09T20:19:52.840Z,15.70
2018-06-09T20:22:18.854Z,15.83
2018-06-09T20:24:44.979Z,15.77
2018-06-09T20:27:11.323Z,16.30
2018-06-09T20:29:37.760Z,14.23
2018-06-09T20:32:03.823Z,15.70
2018-06-09T20:34:29.857Z,13.73
2018-06-09T20:36:55.922Z,14.57
2018-06-09T20:39:22.372Z,14.47
2018-06-09T20:41:48.495Z,14.17
2018-06-09T20:44:14.766Z,14.00
2018-06-09T20:46:40.827Z,14.23
2018-06-09T20:49:06.949Z,14.60
2018-06-09T20:51:32.974Z,14.27
2018-06-09T20:53:58.991Z,14.63
2018-06-09T20:56:25.007Z,15.27
2018-06-09T20:58:51.037Z,13.77
2018-06-09T21:01:17.048Z,15.57
2018-06-09T21:03:43.073Z,16.27
2018-06-09T21:06:09.114Z,15.40
2018-06-09T21:08:35.134Z,15.00
2018-06-09T21:13:33.633Z,14.00
2018-06-09T21:15:59.655Z,13.67
2018-06-09T21:18:25.677Z,13.67
2018-06-09T21:20:51.700Z,14.73
2018-06-09T21:23:19.935Z,14.50
2018-06-09T21:25:46.102Z,14.17
2018-06-09T21:28:12.128Z,13.97
2018-06-09T21:30:38.276Z,14.33
2018-06-09T21:33:04.297Z,13.70
2018-06-09T21:35:30.317Z,13.03
2018-06-09T21:37:56.322Z,13.27
2018-06-09T21:40:22.343Z,14.17
2018-06-09T21:42:48.363Z,12.57
2018-06-09T21:45:14.386Z,13.97
2018-06-09T21:47:40.408Z,13.23
2018-06-09T21:50:06.432Z,13.40
2018-06-09T21:52:32.466Z,12.83
2018-06-09T21:54:58.484Z,13.40
2018-06-09T21:57:24.506Z,12.67
2018-06-09T21:59:50.533Z,13.10
2018-06-09T22:02:16.553Z,11.27
2018-06-09T22:04:42.603Z,12.30
2018-06-09T22:07:08.687Z,11.80
2018-06-09T22:09:34.724Z,12.27
2018-06-09T22:12:00.743Z,11.87
2018-06-09T22:14:26.771Z,12.83
2018-06-09T22:16:52.813Z,12.93
2018-06-09T22:19:18.857Z,12.50
2018-06-09T22:21:44.899Z,11.70
2018-06-09T22:24:10.937Z,12.10
2018-06-09T22:26:36.958Z,12.83
2018-06-09T22:29:02.993Z,12.93
2018-06-09T22:31:29.011Z,11.60
2018-06-09T22:33:55.056Z,12.10
2018-06-09T22:36:21.082Z,11.83
2018-06-09T22:38:47.101Z,11.30
2018-06-09T22:41:13.126Z,11.40
2018-06-09T22:43:39.146Z,12.20
2018-06-09T22:46:05.173Z,11.60
2018-06-09T22:48:31.196Z,12.23
2018-06-09T22:50:57.218Z,11.37
2018-06-09T22:53:23.246Z,13.40
2018-06-09T22:55:49.279Z,12.07
2018-06-09T22:58:15.306Z,11.47
2018-06-09T23:00:41.318Z,11.47
2018-06-09T23:03:07.340Z,11.50
2018-06-09T23:05:33.362Z,11.80
2018-06-09T23:07:59.382Z,13.57
2018-06-09T23:10:25.426Z,11.77
2018-06-09T23:12:51.433Z,11.50
2018-06-09T23:15:17.480Z,10.70
2018-06-09T23:17:43.498Z,12.10
2018-06-09T23:20:09.560Z,11.43
2018-06-09T23:22:35.566Z,11.50
2018-06-09T23:25:01.603Z,11.67
2018-06-09T23:27:27.626Z,11.30
2018-06-09T23:29:53.665Z,12.67
2018-06-09T23:32:19.683Z,11.10
2018-06-09T23:34:45.710Z,11.40
2018-06-09T23:37:11.734Z,11.93
2018-06-09T23:39:37.758Z,11.23
2018-06-09T23:42:03.817Z,12.70
2018-06-09T23:44:29.825Z,11.47
2018-06-09T23:46:55.855Z,12.40
2018-06-09T23:49:21.874Z,11.87
2018-06-09T23:51:47.905Z,11.73
2018-06-09T23:54:13.918Z,12.80
2018-06-09T23:56:39.962Z,11.90
2018-06-09T23:59:05.978Z,11.53
